sensor_id;sensor_type;location;lat;lon;timestamp;temperature;humidity
9043;DHT22;4556;49.150;8.808;2023-04-24T00:01:51;10.50;99.90
9043;DHT22;4556;49.150;8.808;2023-04-24T00:04:18;10.60;99.90
9043;DHT22;4556;49.150;8.808;2023-04-24T00:06:46;10.60;99.90
9043;DHT22;4556;49.150;8.808;2023-04-24T00:09:15;10.60;99.90
9043;DHT22;4556;49.150;8.808;2023-04-24T00:11:42;10.80;99.90
9043;DHT22;4556;49.150;8.808;2023-04-24T00:14:09;10.60;99.90
9043;DHT22;4556;49.150;8.808;2023-04-24T00:16:37;11.70;99.90
9043;DHT22;4556;49.150;8.808;2023-04-24T00:19:05;12.20;99.90
9043;DHT22;4556;49.150;8.808;2023-04-24T00:21:32;12.50;99.90
9043;DHT22;4556;49.150;8.808;2023-04-24T00:23:59;10.70;99.90
9043;DHT22;4556;49.150;8.808;2023-04-24T00:26:27;10.30;99.90
9043;DHT22;4556;49.150;8.808;2023-04-24T00:28:54;10.80;99.90
9043;DHT22;4556;49.150;8.808;2023-04-24T00:31:21;12.20;99.90
9043;DHT22;4556;49.150;8.808;2023-04-24T00:33:49;10.90;99.90
9043;DHT22;4556;49.150;8.808;2023-04-24T00:36:17;12.10;99.90
9043;DHT22;4556;49.150;8.808;2023-04-24T00:38:46;11.80;99.90
9043;DHT22;4556;49.150;8.808;2023-04-24T00:41:13;10.80;99.90
9043;DHT22;4556;49.150;8.808;2023-04-24T00:43:40;10.80;99.90
9043;DHT22;4556;49.150;8.808;2023-04-24T00:46:07;10.70;99.90
9043;DHT22;4556;49.150;8.808;2023-04-24T00:48:34;10.70;99.90
9043;DHT22;4556;49.150;8.808;2023-04-24T00:51:03;10.80;99.90
9043;DHT22;4556;49.150;8.808;2023-04-24T00:53:30;10.80;99.90
9043;DHT22;4556;49.150;8.808;2023-04-24T00:55:58;10.70;99.90
9043;DHT22;4556;49.150;8.808;2023-04-24T00:58:26;10.70;99.90
9043;DHT22;4556;49.150;8.808;2023-04-24T01:00:54;10.70;99.90
9043;DHT22;4556;49.150;8.808;2023-04-24T01:03:25;10.70;99.90
9043;DHT22;4556;49.150;8.808;2023-04-24T01:05:55;10.70;99.90
9043;DHT22;4556;49.150;8.808;2023-04-24T01:08:24;10.80;99.90
9043;DHT22;4556;49.150;8.808;2023-04-24T01:10:53;10.80;99.90
9043;DHT22;4556;49.150;8.808;2023-04-24T01:13:20;11.10;99.90
9043;DHT22;4556;49.150;8.808;2023-04-24T01:15:48;11.40;99.90
9043;DHT22;4556;49.150;8.808;2023-04-24T01:18:15;10.70;99.90
9043;DHT22;4556;49.150;8.808;2023-04-24T01:20:43;12.00;99.90
9043;DHT22;4556;49.150;8.808;2023-04-24T01:23:13;11.10;99.90
9043;DHT22;4556;49.150;8.808;2023-04-24T01:25:41;11.20;99.90
9043;DHT22;4556;49.150;8.808;2023-04-24T01:28:08;10.70;99.90
9043;DHT22;4556;49.150;8.808;2023-04-24T01:30:35;10.80;99.90
9043;DHT22;4556;49.150;8.808;2023-04-24T01:33:02;10.70;99.90
9043;DHT22;4556;49.150;8.808;2023-04-24T01:35:29;10.70;99.90
9043;DHT22;4556;49.150;8.808;2023-04-24T01:37:57;10.80;99.90
9043;DHT22;4556;49.150;8.808;2023-04-24T01:40:27;10.90;99.90
9043;DHT22;4556;49.150;8.808;2023-04-24T01:42:54;10.80;99.90
9043;DHT22;4556;49.150;8.808;2023-04-24T01:45:23;11.30;99.90
9043;DHT22;4556;49.150;8.808;2023-04-24T01:47:50;11.60;99.90
9043;DHT22;4556;49.150;8.808;2023-04-24T01:50:17;11.70;99.90
9043;DHT22;4556;49.150;8.808;2023-04-24T01:52:45;11.80;99.90
9043;DHT22;4556;49.150;8.808;2023-04-24T01:55:12;10.80;99.90
9043;DHT22;4556;49.150;8.808;2023-04-24T01:57:40;11.70;99.90
9043;DHT22;4556;49.150;8.808;2023-04-24T02:00:08;10.80;99.90
9043;DHT22;4556;49.150;8.808;2023-04-24T02:02:36;10.70;99.90
9043;DHT22;4556;49.150;8.808;2023-04-24T02:05:06;10.70;99.90
9043;DHT22;4556;49.150;8.808;2023-04-24T02:07:33;10.70;99.90
9043;DHT22;4556;49.150;8.808;2023-04-24T02:10:00;10.90;99.90
9043;DHT22;4556;49.150;8.808;2023-04-24T02:12:27;10.90;99.90
9043;DHT22;4556;49.150;8.808;2023-04-24T02:14:56;12.10;99.90
9043;DHT22;4556;49.150;8.808;2023-04-24T02:17:23;12.00;99.90
9043;DHT22;4556;49.150;8.808;2023-04-24T02:19:50;10.90;99.90
9043;DHT22;4556;49.150;8.808;2023-04-24T02:22:17;11.60;99.90
9043;DHT22;4556;49.150;8.808;2023-04-24T02:24:44;10.70;99.90
9043;DHT22;4556;49.150;8.808;2023-04-24T02:27:11;10.70;99.90
9043;DHT22;4556;49.150;8.808;2023-04-24T02:29:38;10.70;99.90
9043;DHT22;4556;49.150;8.808;2023-04-24T02:32:07;10.70;99.90
9043;DHT22;4556;49.150;8.808;2023-04-24T02:34:36;10.60;99.90
9043;DHT22;4556;49.150;8.808;2023-04-24T02:37:03;11.20;99.90
9043;DHT22;4556;49.150;8.808;2023-04-24T02:39:30;10.70;99.90
9043;DHT22;4556;49.150;8.808;2023-04-24T02:41:57;11.80;99.90
9043;DHT22;4556;49.150;8.808;2023-04-24T02:44:25;10.70;99.90
9043;DHT22;4556;49.150;8.808;2023-04-24T02:46:52;10.80;99.90
9043;DHT22;4556;49.150;8.808;2023-04-24T02:49:21;10.30;99.90
9043;DHT22;4556;49.150;8.808;2023-04-24T02:51:48;10.70;99.90
9043;DHT22;4556;49.150;8.808;2023-04-24T02:54:15;10.70;99.90
9043;DHT22;4556;49.150;8.808;2023-04-24T02:56:42;11.30;99.90
9043;DHT22;4556;49.150;8.808;2023-04-24T02:59:09;10.80;99.90
9043;DHT22;4556;49.150;8.808;2023-04-24T03:01:37;11.50;99.90
9043;DHT22;4556;49.150;8.808;2023-04-24T03:04:04;10.90;99.90
9043;DHT22;4556;49.150;8.808;2023-04-24T03:06:32;10.80;99.90
9043;DHT22;4556;49.150;8.808;2023-04-24T03:09:00;10.80;99.90
9043;DHT22;4556;49.150;8.808;2023-04-24T03:11:28;12.10;99.90
9043;DHT22;4556;49.150;8.808;2023-04-24T03:13:55;11.00;99.90
9043;DHT22;4556;49.150;8.808;2023-04-24T03:16:22;11.70;99.90
9043;DHT22;4556;49.150;8.808;2023-04-24T03:18:49;10.90;99.90
9043;DHT22;4556;49.150;8.808;2023-04-24T03:21:16;10.80;99.90
9043;DHT22;4556;49.150;8.808;2023-04-24T03:23:45;10.90;99.90
9043;DHT22;4556;49.150;8.808;2023-04-24T03:26:12;11.40;99.90
9043;DHT22;4556;49.150;8.808;2023-04-24T03:28:39;10.90;99.90
9043;DHT22;4556;49.150;8.808;2023-04-24T03:31:06;12.30;99.90
9043;DHT22;4556;49.150;8.808;2023-04-24T03:33:33;12.10;99.90
9043;DHT22;4556;49.150;8.808;2023-04-24T03:36:01;11.00;99.90
9043;DHT22;4556;49.150;8.808;2023-04-24T03:38:28;11.70;99.90
9043;DHT22;4556;49.150;8.808;2023-04-24T03:40:57;12.30;99.90
9043;DHT22;4556;49.150;8.808;2023-04-24T03:43:24;10.80;99.90
9043;DHT22;4556;49.150;8.808;2023-04-24T03:45:52;12.50;99.90
9043;DHT22;4556;49.150;8.808;2023-04-24T03:48:19;10.60;99.90
9043;DHT22;4556;49.150;8.808;2023-04-24T03:50:46;10.40;99.90
9043;DHT22;4556;49.150;8.808;2023-04-24T03:53:14;10.70;99.90
9043;DHT22;4556;49.150;8.808;2023-04-24T03:55:41;11.40;99.90
9043;DHT22;4556;49.150;8.808;2023-04-24T03:58:09;10.00;99.90
9043;DHT22;4556;49.150;8.808;2023-04-24T04:00:36;9.90;99.90
9043;DHT22;4556;49.150;8.808;2023-04-24T04:03:05;9.80;99.90
9043;DHT22;4556;49.150;8.808;2023-04-24T04:05:32;9.80;99.90
9043;DHT22;4556;49.150;8.808;2023-04-24T04:07:59;9.80;99.90
9043;DHT22;4556;49.150;8.808;2023-04-24T04:10:26;9.80;99.90
9043;DHT22;4556;49.150;8.808;2023-04-24T04:12:53;10.40;99.90
9043;DHT22;4556;49.150;8.808;2023-04-24T04:15:22;9.80;99.90
9043;DHT22;4556;49.150;8.808;2023-04-24T04:17:49;9.90;99.90
9043;DHT22;4556;49.150;8.808;2023-04-24T04:20:16;9.80;99.90
9043;DHT22;4556;49.150;8.808;2023-04-24T04:22:43;9.60;99.90
9043;DHT22;4556;49.150;8.808;2023-04-24T04:25:10;9.50;99.90
9043;DHT22;4556;49.150;8.808;2023-04-24T04:27:39;10.20;99.90
9043;DHT22;4556;49.150;8.808;2023-04-24T04:30:07;9.40;99.90
9043;DHT22;4556;49.150;8.808;2023-04-24T04:32:36;9.30;99.90
9043;DHT22;4556;49.150;8.808;2023-04-24T04:35:04;9.70;99.90
9043;DHT22;4556;49.150;8.808;2023-04-24T04:37:32;9.20;99.90
9043;DHT22;4556;49.150;8.808;2023-04-24T04:39:59;9.20;99.90
9043;DHT22;4556;49.150;8.808;2023-04-24T04:42:27;9.20;99.90
9043;DHT22;4556;49.150;8.808;2023-04-24T04:44:54;9.10;99.90
9043;DHT22;4556;49.150;8.808;2023-04-24T04:47:23;9.10;99.90
9043;DHT22;4556;49.150;8.808;2023-04-24T04:49:51;9.10;99.90
9043;DHT22;4556;49.150;8.808;2023-04-24T04:52:19;9.10;99.90
9043;DHT22;4556;49.150;8.808;2023-04-24T04:54:50;10.50;99.90
9043;DHT22;4556;49.150;8.808;2023-04-24T04:57:17;9.00;99.90
9043;DHT22;4556;49.150;8.808;2023-04-24T04:59:44;9.50;99.90
9043;DHT22;4556;49.150;8.808;2023-04-24T05:02:11;8.90;99.90
9043;DHT22;4556;49.150;8.808;2023-04-24T05:04:38;8.80;99.90
9043;DHT22;4556;49.150;8.808;2023-04-24T05:07:06;10.00;99.90
9043;DHT22;4556;49.150;8.808;2023-04-24T05:09:33;8.80;99.90
9043;DHT22;4556;49.150;8.808;2023-04-24T05:12:00;8.90;99.90
9043;DHT22;4556;49.150;8.808;2023-04-24T05:14:27;8.90;99.90
9043;DHT22;4556;49.150;8.808;2023-04-24T05:16:54;9.00;99.90
9043;DHT22;4556;49.150;8.808;2023-04-24T05:19:22;10.10;99.90
9043;DHT22;4556;49.150;8.808;2023-04-24T05:21:49;9.10;99.90
9043;DHT22;4556;49.150;8.808;2023-04-24T05:24:17;9.20;99.90
9043;DHT22;4556;49.150;8.808;2023-04-24T05:26:44;10.10;99.90
9043;DHT22;4556;49.150;8.808;2023-04-24T05:29:12;10.40;99.90
9043;DHT22;4556;49.150;8.808;2023-04-24T05:31:39;9.20;99.90
9043;DHT22;4556;49.150;8.808;2023-04-24T05:34:06;9.40;99.90
9043;DHT22;4556;49.150;8.808;2023-04-24T05:36:33;9.30;99.90
9043;DHT22;4556;49.150;8.808;2023-04-24T05:39:00;9.50;99.90
9043;DHT22;4556;49.150;8.808;2023-04-24T05:41:31;9.60;99.90
9043;DHT22;4556;49.150;8.808;2023-04-24T05:43:59;9.50;99.90
9043;DHT22;4556;49.150;8.808;2023-04-24T05:46:26;9.60;99.90
9043;DHT22;4556;49.150;8.808;2023-04-24T05:48:53;11.80;99.90
9043;DHT22;4556;49.150;8.808;2023-04-24T05:51:20;10.70;99.90
9043;DHT22;4556;49.150;8.808;2023-04-24T05:53:47;11.10;99.90
9043;DHT22;4556;49.150;8.808;2023-04-24T05:56:14;10.20;99.90
9043;DHT22;4556;49.150;8.808;2023-04-24T05:58:43;10.30;99.90
9043;DHT22;4556;49.150;8.808;2023-04-24T06:01:10;10.30;99.90
9043;DHT22;4556;49.150;8.808;2023-04-24T06:03:38;10.50;99.90
9043;DHT22;4556;49.150;8.808;2023-04-24T06:06:06;10.60;99.90
9043;DHT22;4556;49.150;8.808;2023-04-24T06:08:33;11.00;99.90
9043;DHT22;4556;49.150;8.808;2023-04-24T06:11:00;11.00;99.90
9043;DHT22;4556;49.150;8.808;2023-04-24T06:13:28;11.00;99.90
9043;DHT22;4556;49.150;8.808;2023-04-24T06:15:56;11.10;99.90
9043;DHT22;4556;49.150;8.808;2023-04-24T06:18:23;10.80;99.90
9043;DHT22;4556;49.150;8.808;2023-04-24T06:20:50;11.60;99.90
9043;DHT22;4556;49.150;8.808;2023-04-24T06:23:17;11.30;99.90
9043;DHT22;4556;49.150;8.808;2023-04-24T06:25:44;11.50;99.90
9043;DHT22;4556;49.150;8.808;2023-04-24T06:28:12;14.10;99.90
9043;DHT22;4556;49.150;8.808;2023-04-24T06:30:39;13.50;99.90
9043;DHT22;4556;49.150;8.808;2023-04-24T06:33:08;11.50;99.90
9043;DHT22;4556;49.150;8.808;2023-04-24T06:35:35;13.60;99.90
9043;DHT22;4556;49.150;8.808;2023-04-24T06:38:03;11.50;99.90
9043;DHT22;4556;49.150;8.808;2023-04-24T06:40:30;13.00;99.90
9043;DHT22;4556;49.150;8.808;2023-04-24T06:42:58;11.50;99.90
9043;DHT22;4556;49.150;8.808;2023-04-24T06:45:28;11.10;99.90
9043;DHT22;4556;49.150;8.808;2023-04-24T06:47:55;13.20;99.90
9043;DHT22;4556;49.150;8.808;2023-04-24T06:50:24;11.80;99.90
9043;DHT22;4556;49.150;8.808;2023-04-24T06:52:51;12.20;99.90
9043;DHT22;4556;49.150;8.808;2023-04-24T06:55:18;11.80;99.90
9043;DHT22;4556;49.150;8.808;2023-04-24T06:57:45;10.70;99.90
9043;DHT22;4556;49.150;8.808;2023-04-24T07:00:13;12.60;99.90
9043;DHT22;4556;49.150;8.808;2023-04-24T07:02:41;11.00;99.90
9043;DHT22;4556;49.150;8.808;2023-04-24T07:05:08;10.60;99.90
9043;DHT22;4556;49.150;8.808;2023-04-24T07:07:36;10.90;99.90
9043;DHT22;4556;49.150;8.808;2023-04-24T07:10:06;12.60;99.90
9043;DHT22;4556;49.150;8.808;2023-04-24T07:12:34;11.20;99.90
9043;DHT22;4556;49.150;8.808;2023-04-24T07:15:01;11.40;99.90
9043;DHT22;4556;49.150;8.808;2023-04-24T07:17:28;11.50;99.90
9043;DHT22;4556;49.150;8.808;2023-04-24T07:19:55;13.70;99.90
9043;DHT22;4556;49.150;8.808;2023-04-24T07:22:22;11.40;99.90
9043;DHT22;4556;49.150;8.808;2023-04-24T07:24:51;11.60;99.90
9043;DHT22;4556;49.150;8.808;2023-04-24T07:27:18;12.80;99.90
9043;DHT22;4556;49.150;8.808;2023-04-24T07:29:45;13.40;99.90
9043;DHT22;4556;49.150;8.808;2023-04-24T07:32:12;13.60;99.90
9043;DHT22;4556;49.150;8.808;2023-04-24T07:34:39;13.90;99.90
9043;DHT22;4556;49.150;8.808;2023-04-24T07:37:06;13.60;99.90
9043;DHT22;4556;49.150;8.808;2023-04-24T07:39:34;13.40;99.90
9043;DHT22;4556;49.150;8.808;2023-04-24T07:42:02;12.10;99.90
9043;DHT22;4556;49.150;8.808;2023-04-24T07:44:29;11.90;99.90
9043;DHT22;4556;49.150;8.808;2023-04-24T07:46:57;11.80;99.90
9043;DHT22;4556;49.150;8.808;2023-04-24T07:49:27;11.60;99.90
9043;DHT22;4556;49.150;8.808;2023-04-24T07:51:55;11.50;99.90
9043;DHT22;4556;49.150;8.808;2023-04-24T07:54:23;12.30;99.90
9043;DHT22;4556;49.150;8.808;2023-04-24T07:56:52;11.30;99.90
9043;DHT22;4556;49.150;8.808;2023-04-24T07:59:21;11.20;99.90
9043;DHT22;4556;49.150;8.808;2023-04-24T08:01:48;11.30;99.90
9043;DHT22;4556;49.150;8.808;2023-04-24T08:04:18;13.00;99.90
9043;DHT22;4556;49.150;8.808;2023-04-24T08:06:48;10.90;99.90
9043;DHT22;4556;49.150;8.808;2023-04-24T08:09:17;12.40;99.90
9043;DHT22;4556;49.150;8.808;2023-04-24T08:11:44;11.20;99.90
9043;DHT22;4556;49.150;8.808;2023-04-24T08:14:13;12.50;99.90
9043;DHT22;4556;49.150;8.808;2023-04-24T08:16:42;11.20;99.90
9043;DHT22;4556;49.150;8.808;2023-04-24T08:19:09;11.20;99.90
9043;DHT22;4556;49.150;8.808;2023-04-24T08:21:36;12.90;99.90
9043;DHT22;4556;49.150;8.808;2023-04-24T08:24:07;13.40;99.90
9043;DHT22;4556;49.150;8.808;2023-04-24T08:26:37;12.00;99.90
9043;DHT22;4556;49.150;8.808;2023-04-24T08:29:04;11.90;99.90
9043;DHT22;4556;49.150;8.808;2023-04-24T08:31:32;11.70;99.90
9043;DHT22;4556;49.150;8.808;2023-04-24T08:34:00;12.70;99.90
9043;DHT22;4556;49.150;8.808;2023-04-24T08:36:28;13.10;99.90
9043;DHT22;4556;49.150;8.808;2023-04-24T08:38:56;12.50;99.90
9043;DHT22;4556;49.150;8.808;2023-04-24T08:41:25;11.40;99.90
9043;DHT22;4556;49.150;8.808;2023-04-24T08:43:55;12.40;99.90
9043;DHT22;4556;49.150;8.808;2023-04-24T08:46:26;12.10;99.90
9043;DHT22;4556;49.150;8.808;2023-04-24T08:49:07;13.20;99.90
9043;DHT22;4556;49.150;8.808;2023-04-24T08:51:38;12.50;99.90
9043;DHT22;4556;49.150;8.808;2023-04-24T08:54:06;13.60;99.90
9043;DHT22;4556;49.150;8.808;2023-04-24T08:56:34;12.40;99.90
9043;DHT22;4556;49.150;8.808;2023-04-24T08:59:04;12.50;99.90
9043;DHT22;4556;49.150;8.808;2023-04-24T09:01:32;12.70;99.90
9043;DHT22;4556;49.150;8.808;2023-04-24T09:04:02;14.40;99.90
9043;DHT22;4556;49.150;8.808;2023-04-24T09:06:39;12.80;99.90
9043;DHT22;4556;49.150;8.808;2023-04-24T09:09:16;13.00;99.90
9043;DHT22;4556;49.150;8.808;2023-04-24T09:11:43;16.20;99.90
9043;DHT22;4556;49.150;8.808;2023-04-24T09:14:10;13.70;99.90
9043;DHT22;4556;49.150;8.808;2023-04-24T09:16:41;15.20;99.90
9043;DHT22;4556;49.150;8.808;2023-04-24T09:19:09;12.50;99.90
9043;DHT22;4556;49.150;8.808;2023-04-24T09:21:45;12.20;99.90
9043;DHT22;4556;49.150;8.808;2023-04-24T09:24:21;12.50;99.90
9043;DHT22;4556;49.150;8.808;2023-04-24T09:27:02;12.70;99.90
9043;DHT22;4556;49.150;8.808;2023-04-24T09:29:31;12.70;99.90
9043;DHT22;4556;49.150;8.808;2023-04-24T09:32:19;12.90;99.90
9043;DHT22;4556;49.150;8.808;2023-04-24T09:34:47;13.00;99.90
9043;DHT22;4556;49.150;8.808;2023-04-24T09:37:34;13.20;99.90
9043;DHT22;4556;49.150;8.808;2023-04-24T09:40:15;14.10;99.90
9043;DHT22;4556;49.150;8.808;2023-04-24T09:42:46;12.50;99.90
9043;DHT22;4556;49.150;8.808;2023-04-24T09:45:13;12.10;99.90
9043;DHT22;4556;49.150;8.808;2023-04-24T09:47:40;14.20;99.90
9043;DHT22;4556;49.150;8.808;2023-04-24T09:50:15;13.30;99.90
9043;DHT22;4556;49.150;8.808;2023-04-24T09:52:45;11.70;99.90
9043;DHT22;4556;49.150;8.808;2023-04-24T09:55:20;13.10;99.90
9043;DHT22;4556;49.150;8.808;2023-04-24T09:57:52;11.70;99.90
9043;DHT22;4556;49.150;8.808;2023-04-24T11:48:20;11.90;99.90
9043;DHT22;4556;49.150;8.808;2023-04-24T11:50:47;11.70;99.90
9043;DHT22;4556;49.150;8.808;2023-04-24T11:53:14;11.50;99.90
9043;DHT22;4556;49.150;8.808;2023-04-24T11:55:41;11.30;99.90
9043;DHT22;4556;49.150;8.808;2023-04-24T11:58:27;12.30;99.90
9043;DHT22;4556;49.150;8.808;2023-04-24T12:00:56;10.80;99.90
9043;DHT22;4556;49.150;8.808;2023-04-24T12:06:04;10.50;99.90
9043;DHT22;4556;49.150;8.808;2023-04-24T12:08:35;10.70;99.90
9043;DHT22;4556;49.150;8.808;2023-04-24T12:11:06;12.60;99.90
9043;DHT22;4556;49.150;8.808;2023-04-24T12:13:41;10.70;99.90
9043;DHT22;4556;49.150;8.808;2023-04-24T12:16:08;11.60;99.90
9043;DHT22;4556;49.150;8.808;2023-04-24T12:18:40;11.80;99.90
9043;DHT22;4556;49.150;8.808;2023-04-24T12:21:37;12.20;99.90
9043;DHT22;4556;49.150;8.808;2023-04-24T12:24:06;12.10;99.90
9043;DHT22;4556;49.150;8.808;2023-04-24T12:26:34;12.60;99.90
9043;DHT22;4556;49.150;8.808;2023-04-24T12:29:03;12.00;99.90
9043;DHT22;4556;49.150;8.808;2023-04-24T12:31:33;12.10;99.90
9043;DHT22;4556;49.150;8.808;2023-04-24T12:34:00;12.20;99.90
9043;DHT22;4556;49.150;8.808;2023-04-24T12:36:29;12.60;99.90
9043;DHT22;4556;49.150;8.808;2023-04-24T12:38:56;12.90;99.90
9043;DHT22;4556;49.150;8.808;2023-04-24T12:41:24;12.40;99.90
9043;DHT22;4556;49.150;8.808;2023-04-24T12:43:51;13.30;99.90
9043;DHT22;4556;49.150;8.808;2023-04-24T12:46:21;12.60;99.90
9043;DHT22;4556;49.150;8.808;2023-04-24T12:48:58;12.50;99.90
9043;DHT22;4556;49.150;8.808;2023-04-24T12:51:26;12.10;99.90
9043;DHT22;4556;49.150;8.808;2023-04-24T12:53:55;13.80;99.90
9043;DHT22;4556;49.150;8.808;2023-04-24T12:56:24;12.00;99.90
9043;DHT22;4556;49.150;8.808;2023-04-24T12:58:50;11.60;99.90
9043;DHT22;4556;49.150;8.808;2023-04-24T13:01:17;12.70;99.90
9043;DHT22;4556;49.150;8.808;2023-04-24T13:03:44;13.70;99.90
9043;DHT22;4556;49.150;8.808;2023-04-24T13:06:11;11.70;99.90
9043;DHT22;4556;49.150;8.808;2023-04-24T13:08:39;13.30;99.90
9043;DHT22;4556;49.150;8.808;2023-04-24T13:11:07;11.10;99.90
9043;DHT22;4556;49.150;8.808;2023-04-24T13:13:35;11.80;99.90
9043;DHT22;4556;49.150;8.808;2023-04-24T13:16:04;11.60;99.90
9043;DHT22;4556;49.150;8.808;2023-04-24T13:18:34;11.70;99.90
9043;DHT22;4556;49.150;8.808;2023-04-24T13:21:01;12.00;99.90
9043;DHT22;4556;49.150;8.808;2023-04-24T13:23:31;12.20;99.90
9043;DHT22;4556;49.150;8.808;2023-04-24T13:25:58;13.20;99.90
9043;DHT22;4556;49.150;8.808;2023-04-24T13:28:35;14.10;99.90
9043;DHT22;4556;49.150;8.808;2023-04-24T13:31:05;13.10;99.90
9043;DHT22;4556;49.150;8.808;2023-04-24T13:33:35;14.00;99.90
9043;DHT22;4556;49.150;8.808;2023-04-24T13:36:03;12.70;99.90
9043;DHT22;4556;49.150;8.808;2023-04-24T13:38:30;12.30;99.90
9043;DHT22;4556;49.150;8.808;2023-04-24T13:40:57;12.60;99.90
9043;DHT22;4556;49.150;8.808;2023-04-24T13:43:24;13.70;99.90
9043;DHT22;4556;49.150;8.808;2023-04-24T13:45:53;14.10;99.90
9043;DHT22;4556;49.150;8.808;2023-04-24T13:48:20;14.00;99.90
9043;DHT22;4556;49.150;8.808;2023-04-24T13:50:47;12.90;99.90
9043;DHT22;4556;49.150;8.808;2023-04-24T13:53:15;12.60;99.90
9043;DHT22;4556;49.150;8.808;2023-04-24T13:55:43;14.10;99.90
9043;DHT22;4556;49.150;8.808;2023-04-24T13:58:10;12.90;99.90
9043;DHT22;4556;49.150;8.808;2023-04-24T14:00:37;12.60;99.90
9043;DHT22;4556;49.150;8.808;2023-04-24T14:03:06;12.30;99.90
9043;DHT22;4556;49.150;8.808;2023-04-24T14:05:33;13.50;99.90
9043;DHT22;4556;49.150;8.808;2023-04-24T14:08:00;12.20;99.90
9043;DHT22;4556;49.150;8.808;2023-04-24T14:10:27;13.30;99.90
9043;DHT22;4556;49.150;8.808;2023-04-24T14:12:54;12.80;99.90
9043;DHT22;4556;49.150;8.808;2023-04-24T14:15:21;14.60;99.90
9043;DHT22;4556;49.150;8.808;2023-04-24T14:17:48;12.80;99.90
9043;DHT22;4556;49.150;8.808;2023-04-24T14:20:17;12.50;99.90
9043;DHT22;4556;49.150;8.808;2023-04-24T14:22:49;12.90;99.90
9043;DHT22;4556;49.150;8.808;2023-04-24T14:25:21;14.00;99.90
9043;DHT22;4556;49.150;8.808;2023-04-24T14:27:48;12.90;99.90
9043;DHT22;4556;49.150;8.808;2023-04-24T14:30:16;14.90;99.90
9043;DHT22;4556;49.150;8.808;2023-04-24T14:32:43;12.80;99.90
9043;DHT22;4556;49.150;8.808;2023-04-24T14:35:14;14.90;99.90
9043;DHT22;4556;49.150;8.808;2023-04-24T14:37:42;13.10;99.90
9043;DHT22;4556;49.150;8.808;2023-04-24T14:40:10;13.50;99.90
9043;DHT22;4556;49.150;8.808;2023-04-24T14:42:38;13.10;99.90
9043;DHT22;4556;49.150;8.808;2023-04-24T14:45:06;14.50;99.90
9043;DHT22;4556;49.150;8.808;2023-04-24T14:47:36;12.90;99.90
9043;DHT22;4556;49.150;8.808;2023-04-24T14:50:04;12.80;99.90
9043;DHT22;4556;49.150;8.808;2023-04-24T14:52:33;12.80;99.90
9043;DHT22;4556;49.150;8.808;2023-04-24T14:55:02;12.80;99.90
9043;DHT22;4556;49.150;8.808;2023-04-24T14:57:29;13.00;99.90
9043;DHT22;4556;49.150;8.808;2023-04-24T14:59:56;12.90;99.90
9043;DHT22;4556;49.150;8.808;2023-04-24T15:02:23;12.80;99.90
9043;DHT22;4556;49.150;8.808;2023-04-24T15:04:50;13.20;99.90
9043;DHT22;4556;49.150;8.808;2023-04-24T15:07:17;14.60;99.90
9043;DHT22;4556;49.150;8.808;2023-04-24T15:09:44;14.30;99.90
9043;DHT22;4556;49.150;8.808;2023-04-24T15:12:14;13.00;99.90
9043;DHT22;4556;49.150;8.808;2023-04-24T15:14:41;15.30;99.90
9043;DHT22;4556;49.150;8.808;2023-04-24T15:17:10;12.90;99.90
9043;DHT22;4556;49.150;8.808;2023-04-24T15:19:37;12.60;99.90
9043;DHT22;4556;49.150;8.808;2023-04-24T15:22:04;14.60;99.90
9043;DHT22;4556;49.150;8.808;2023-04-24T15:24:32;13.30;99.90
9043;DHT22;4556;49.150;8.808;2023-04-24T15:26:59;12.80;99.90
9043;DHT22;4556;49.150;8.808;2023-04-24T15:29:29;14.00;99.90
9043;DHT22;4556;49.150;8.808;2023-04-24T15:31:56;15.30;99.90
9043;DHT22;4556;49.150;8.808;2023-04-24T15:34:23;13.60;99.90
9043;DHT22;4556;49.150;8.808;2023-04-24T15:36:50;12.80;99.90
9043;DHT22;4556;49.150;8.808;2023-04-24T15:39:22;12.80;99.90
9043;DHT22;4556;49.150;8.808;2023-04-24T15:41:51;12.70;99.90
9043;DHT22;4556;49.150;8.808;2023-04-24T15:44:19;12.80;99.90
9043;DHT22;4556;49.150;8.808;2023-04-24T15:46:50;12.90;99.90
9043;DHT22;4556;49.150;8.808;2023-04-24T15:49:18;13.90;99.90
9043;DHT22;4556;49.150;8.808;2023-04-24T15:51:45;12.90;99.90
9043;DHT22;4556;49.150;8.808;2023-04-24T15:54:12;13.50;99.90
9043;DHT22;4556;49.150;8.808;2023-04-24T15:56:39;12.00;99.90
9043;DHT22;4556;49.150;8.808;2023-04-24T15:59:06;12.00;99.90
9043;DHT22;4556;49.150;8.808;2023-04-24T16:01:33;11.80;99.90
9043;DHT22;4556;49.150;8.808;2023-04-24T16:04:02;12.40;99.90
9043;DHT22;4556;49.150;8.808;2023-04-24T16:06:29;13.00;99.90
9043;DHT22;4556;49.150;8.808;2023-04-24T16:08:56;11.60;99.90
9043;DHT22;4556;49.150;8.808;2023-04-24T16:11:25;12.40;99.90
9043;DHT22;4556;49.150;8.808;2023-04-24T16:13:52;11.50;99.90
9043;DHT22;4556;49.150;8.808;2023-04-24T16:16:19;11.80;99.90
9043;DHT22;4556;49.150;8.808;2023-04-24T16:18:46;12.20;99.90
9043;DHT22;4556;49.150;8.808;2023-04-24T16:21:15;11.50;99.90
9043;DHT22;4556;49.150;8.808;2023-04-24T16:23:42;12.00;99.90
9043;DHT22;4556;49.150;8.808;2023-04-24T16:26:09;13.10;99.90
9043;DHT22;4556;49.150;8.808;2023-04-24T16:28:37;12.00;99.90
9043;DHT22;4556;49.150;8.808;2023-04-24T16:31:04;11.00;99.90
9043;DHT22;4556;49.150;8.808;2023-04-24T16:33:31;10.20;99.90
9043;DHT22;4556;49.150;8.808;2023-04-24T16:35:58;10.90;99.90
9043;DHT22;4556;49.150;8.808;2023-04-24T16:38:27;10.80;99.90
9043;DHT22;4556;49.150;8.808;2023-04-24T16:40:54;12.70;99.90
9043;DHT22;4556;49.150;8.808;2023-04-24T16:43:21;10.30;99.90
9043;DHT22;4556;49.150;8.808;2023-04-24T16:45:48;10.20;99.90
9043;DHT22;4556;49.150;8.808;2023-04-24T16:48:15;10.60;99.90
9043;DHT22;4556;49.150;8.808;2023-04-24T16:50:42;12.20;99.90
9043;DHT22;4556;49.150;8.808;2023-04-24T16:53:10;13.20;99.90
9043;DHT22;4556;49.150;8.808;2023-04-24T16:55:39;12.60;99.90
9043;DHT22;4556;49.150;8.808;2023-04-24T16:58:06;9.60;99.90
9043;DHT22;4556;49.150;8.808;2023-04-24T17:00:33;10.90;99.90
9043;DHT22;4556;49.150;8.808;2023-04-24T17:03:02;13.00;99.90
9043;DHT22;4556;49.150;8.808;2023-04-24T17:05:29;13.30;99.90
9043;DHT22;4556;49.150;8.808;2023-04-24T17:07:56;11.60;99.90
9043;DHT22;4556;49.150;8.808;2023-04-24T17:10:23;11.30;99.90
9043;DHT22;4556;49.150;8.808;2023-04-24T17:12:51;10.70;99.90
9043;DHT22;4556;49.150;8.808;2023-04-24T17:15:18;12.70;99.90
9043;DHT22;4556;49.150;8.808;2023-04-24T17:17:45;9.40;99.90
9043;DHT22;4556;49.150;8.808;2023-04-24T17:20:12;11.40;99.90
9043;DHT22;4556;49.150;8.808;2023-04-24T17:22:39;10.80;99.90
9043;DHT22;4556;49.150;8.808;2023-04-24T17:25:06;11.40;99.90
9043;DHT22;4556;49.150;8.808;2023-04-24T17:27:34;10.40;99.90
9043;DHT22;4556;49.150;8.808;2023-04-24T17:30:03;10.50;99.90
9043;DHT22;4556;49.150;8.808;2023-04-24T17:32:30;10.50;99.90
9043;DHT22;4556;49.150;8.808;2023-04-24T17:34:57;10.50;99.90
9043;DHT22;4556;49.150;8.808;2023-04-24T17:37:24;10.20;99.90
9043;DHT22;4556;49.150;8.808;2023-04-24T17:39:51;11.50;99.90
9043;DHT22;4556;49.150;8.808;2023-04-24T17:42:18;11.30;99.90
9043;DHT22;4556;49.150;8.808;2023-04-24T17:44:45;10.20;99.90
9043;DHT22;4556;49.150;8.808;2023-04-24T17:47:13;10.20;99.90
9043;DHT22;4556;49.150;8.808;2023-04-24T17:49:40;11.20;99.90
9043;DHT22;4556;49.150;8.808;2023-04-24T17:52:08;9.60;99.90
9043;DHT22;4556;49.150;8.808;2023-04-24T17:54:36;9.50;99.90
9043;DHT22;4556;49.150;8.808;2023-04-24T17:57:03;9.60;99.90
9043;DHT22;4556;49.150;8.808;2023-04-24T17:59:30;11.10;99.90
9043;DHT22;4556;49.150;8.808;2023-04-24T18:01:57;9.30;99.90